createdAt,value
2019-04-29T00:00:51.445Z,1013.60
2019-04-29T00:01:51.381Z,1013.59
2019-04-29T00:02:51.373Z,1013.53
2019-04-29T00:03:51.368Z,1013.55
2019-04-29T00:04:51.349Z,1013.57
2019-04-29T00:05:51.336Z,1013.56
2019-04-29T00:06:51.325Z,1013.57
2019-04-29T00:07:51.313Z,1013.52
2019-04-29T00:08:51.305Z,1013.56
2019-04-29T00:09:51.309Z,1013.49
2019-04-29T00:10:51.275Z,1013.53
2019-04-29T00:11:51.272Z,1013.52
2019-04-29T00:12:51.268Z,1013.53
2019-04-29T00:13:51.243Z,1013.49
2019-04-29T00:14:51.241Z,1013.53
2019-04-29T00:15:51.257Z,1013.47
2019-04-29T00:16:51.209Z,1013.51
2019-04-29T00:17:51.199Z,1013.50
2019-04-29T00:18:51.183Z,1013.52
2019-04-29T00:19:51.183Z,1013.54
2019-04-29T00:20:51.188Z,1013.52
2019-04-29T00:21:51.153Z,1013.51
2019-04-29T00:22:51.142Z,1013.55
2019-04-29T00:24:03.256Z,1013.53
2019-04-29T00:24:52.140Z,1013.56
2019-04-29T00:25:51.116Z,1013.58
2019-04-29T00:26:51.119Z,1013.52
2019-04-29T00:27:51.091Z,1013.56
2019-04-29T00:28:51.087Z,1013.59
2019-04-29T00:29:51.061Z,1013.57
2019-04-29T00:30:51.056Z,1013.57
2019-04-29T00:31:51.053Z,1013.57
2019-04-29T00:32:51.039Z,1013.52
2019-04-29T00:33:51.043Z,1013.57
2019-04-29T00:34:51.005Z,1013.55
2019-04-29T00:35:50.993Z,1013.60
2019-04-29T00:36:50.986Z,1013.52
2019-04-29T00:37:50.987Z,1013.50
2019-04-29T00:38:50.979Z,1013.53
2019-04-29T00:39:50.952Z,1013.56
2019-04-29T00:40:50.943Z,1013.49
2019-04-29T00:41:50.933Z,1013.43
2019-04-29T00:42:50.925Z,1013.43
2019-04-29T00:43:50.926Z,1013.45
2019-04-29T00:44:50.901Z,1013.49
2019-04-29T00:45:50.884Z,1013.45
2019-04-29T00:46:50.866Z,1013.45
2019-04-29T00:47:50.867Z,1013.41
2019-04-29T00:48:50.864Z,1013.48
2019-04-29T00:49:50.850Z,1013.45
2019-04-29T00:50:50.831Z,1013.51
2019-04-29T00:51:50.818Z,1013.48
2019-04-29T00:52:50.808Z,1013.45
2019-04-29T00:53:50.799Z,1013.43
2019-04-29T00:54:50.807Z,1013.48
2019-04-29T00:55:50.786Z,1013.47
2019-04-29T00:56:50.771Z,1013.47
2019-04-29T00:57:50.749Z,1013.47
2019-04-29T00:58:50.737Z,1013.51
2019-04-29T00:59:50.741Z,1013.51
2019-04-29T01:00:50.797Z,1013.48
2019-04-29T01:01:50.710Z,1013.48
2019-04-29T01:02:50.692Z,1013.47
2019-04-29T01:03:50.680Z,1013.51
2019-04-29T01:04:50.676Z,1013.48
2019-04-29T01:05:50.681Z,1013.53
2019-04-29T01:06:50.645Z,1013.45
2019-04-29T01:07:50.638Z,1013.46
2019-04-29T01:08:50.630Z,1013.48
2019-04-29T01:09:50.620Z,1013.53
2019-04-29T01:10:50.617Z,1013.55
2019-04-29T01:11:50.618Z,1013.50
2019-04-29T01:12:50.583Z,1013.51
2019-04-29T01:13:50.564Z,1013.56
2019-04-29T01:14:50.555Z,1013.54
2019-04-29T01:15:50.605Z,1013.49
2019-04-29T01:16:50.544Z,1013.57
2019-04-29T01:17:50.550Z,1013.52
2019-04-29T01:18:50.518Z,1013.51
2019-04-29T01:19:50.502Z,1013.51
2019-04-29T01:20:50.492Z,1013.53
2019-04-29T01:21:50.481Z,1013.50
2019-04-29T01:22:50.489Z,1013.50
2019-04-29T01:23:50.454Z,1013.47
2019-04-29T01:24:50.454Z,1013.52
2019-04-29T01:25:50.436Z,1013.51
2019-04-29T01:26:50.434Z,1013.51
2019-04-29T01:27:50.418Z,1013.52
2019-04-29T01:28:50.424Z,1013.44
2019-04-29T01:29:50.396Z,1013.42
2019-04-29T01:30:50.375Z,1013.44
2019-04-29T01:31:50.370Z,1013.40
2019-04-29T01:32:50.360Z,1013.43
2019-04-29T01:33:50.360Z,1013.41
2019-04-29T01:34:50.358Z,1013.39
2019-04-29T01:35:50.326Z,1013.41
2019-04-29T01:36:50.312Z,1013.39
2019-04-29T01:37:50.301Z,1013.39
2019-04-29T01:38:50.300Z,1013.38
2019-04-29T01:39:50.292Z,1013.33
2019-04-29T01:40:50.272Z,1013.32
2019-04-29T01:41:50.267Z,1013.38
2019-04-29T01:42:50.248Z,1013.33
2019-04-29T01:43:50.232Z,1013.31
2019-04-29T01:44:50.237Z,1013.30
2019-04-29T01:45:50.226Z,1013.27
2019-04-29T01:46:50.253Z,1013.30
2019-04-29T01:47:50.221Z,1013.24
2019-04-29T01:48:50.182Z,1013.23
2019-04-29T01:49:50.171Z,1013.20
2019-04-29T01:50:50.168Z,1013.23
2019-04-29T01:51:50.144Z,1013.19
2019-04-29T01:52:50.132Z,1013.22
2019-04-29T01:53:50.119Z,1013.17
2019-04-29T01:54:50.112Z,1013.19
2019-04-29T01:55:50.107Z,1013.18
2019-04-29T01:56:50.096Z,1013.13
2019-04-29T01:57:50.098Z,1013.17
2019-04-29T01:58:50.068Z,1013.08
2019-04-29T01:59:50.052Z,1013.12
2019-04-29T02:00:50.049Z,1013.11
2019-04-29T02:01:50.048Z,1013.14
2019-04-29T02:02:50.030Z,1013.06
2019-04-29T02:03:50.007Z,1013.06
2019-04-29T02:04:50.072Z,1013.13
2019-04-29T02:05:50.004Z,1013.20
2019-04-29T02:06:50.057Z,1013.12
2019-04-29T02:07:49.973Z,1013.15
2019-04-29T02:08:49.959Z,1013.14
2019-04-29T02:09:49.950Z,1013.15
2019-04-29T02:10:49.928Z,1013.14
2019-04-29T02:11:49.943Z,1013.16
2019-04-29T02:12:49.921Z,1013.13
2019-04-29T02:13:49.894Z,1013.15
2019-04-29T02:14:49.889Z,1013.10
2019-04-29T02:15:49.878Z,1013.12
2019-04-29T02:16:49.860Z,1013.09
2019-04-29T02:17:49.854Z,1013.05
2019-04-29T02:18:49.860Z,1013.09
2019-04-29T02:19:49.849Z,1013.09
2019-04-29T02:20:49.818Z,1013.11
2019-04-29T02:21:49.808Z,1013.05
2019-04-29T02:22:49.806Z,1013.10
2019-04-29T02:23:49.795Z,1013.04
2019-04-29T02:24:49.782Z,1013.07
2019-04-29T02:25:49.764Z,1013.03
2019-04-29T02:26:49.756Z,1013.02
2019-04-29T02:27:49.746Z,1013.02
2019-04-29T02:28:49.732Z,1013.04
2019-04-29T02:29:49.738Z,1012.99
2019-04-29T02:30:49.708Z,1012.99
2019-04-29T02:31:49.693Z,1012.90
2019-04-29T02:32:49.681Z,1012.95
2019-04-29T02:33:49.686Z,1012.94
2019-04-29T02:34:49.662Z,1012.91
2019-04-29T02:35:49.671Z,1012.96
2019-04-29T02:36:49.658Z,1012.88
2019-04-29T02:37:49.650Z,1012.84
2019-04-29T02:38:49.623Z,1012.87
2019-04-29T02:39:49.620Z,1012.84
2019-04-29T02:40:49.605Z,1012.82
2019-04-29T02:41:49.594Z,1012.80
2019-04-29T02:42:49.596Z,1012.84
2019-04-29T02:43:49.568Z,1012.78
2019-04-29T02:44:49.561Z,1012.79
2019-04-29T02:45:49.544Z,1012.76
2019-04-29T02:46:49.539Z,1012.79
2019-04-29T02:47:49.592Z,1012.75
2019-04-29T02:48:49.511Z,1012.71
2019-04-29T02:49:49.511Z,1012.63
2019-04-29T02:50:49.485Z,1012.65
2019-04-29T02:51:49.478Z,1012.67
2019-04-29T02:52:49.485Z,1012.70
2019-04-29T02:53:49.498Z,1012.65
2019-04-29T02:54:49.431Z,1012.72
2019-04-29T02:55:49.416Z,1012.67
2019-04-29T02:56:49.422Z,1012.63
2019-04-29T02:57:49.404Z,1012.63
2019-04-29T02:58:49.409Z,1012.67
2019-04-29T02:59:49.383Z,1012.65
2019-04-29T03:00:49.366Z,1012.62
2019-04-29T03:01:49.357Z,1012.64
2019-04-29T03:02:49.356Z,1012.64
2019-04-29T03:03:49.342Z,1012.64
2019-04-29T03:04:49.329Z,1012.63
2019-04-29T03:05:49.312Z,1012.63
2019-04-29T03:06:49.306Z,1012.57
2019-04-29T03:07:49.304Z,1012.61
2019-04-29T03:08:49.279Z,1012.58
2019-04-29T03:09:49.311Z,1012.56
2019-04-29T03:10:49.261Z,1012.57
2019-04-29T03:11:49.250Z,1012.61
2019-04-29T03:12:49.242Z,1012.54
2019-04-29T03:13:49.248Z,1012.56
2019-04-29T03:14:49.216Z,1012.57
2019-04-29T03:15:49.241Z,1012.57
2019-04-29T03:16:49.195Z,1012.55
2019-04-29T03:17:49.182Z,1012.54
2019-04-29T03:18:49.176Z,1012.51
2019-04-29T03:19:49.163Z,1012.48
2019-04-29T03:20:49.175Z,1012.51
2019-04-29T03:21:49.132Z,1012.51
2019-04-29T03:22:49.124Z,1012.51
2019-04-29T03:23:49.118Z,1012.45
2019-04-29T03:24:49.099Z,1012.46
2019-04-29T03:25:49.110Z,1012.41
2019-04-29T03:26:49.083Z,1012.47
2019-04-29T03:27:49.074Z,1012.43
2019-04-29T03:28:49.054Z,1012.41
2019-04-29T03:29:49.082Z,1012.36
2019-04-29T03:30:49.047Z,1012.34
2019-04-29T03:31:49.048Z,1012.43
2019-04-29T03:32:49.010Z,1012.36
2019-04-29T03:33:49.016Z,1012.37
2019-04-29T03:34:48.978Z,1012.35
2019-04-29T03:35:49.048Z,1012.29
2019-04-29T03:36:48.978Z,1012.31
2019-04-29T03:37:48.966Z,1012.25
2019-04-29T03:38:48.942Z,1012.27
2019-04-29T03:39:48.930Z,1012.18
2019-04-29T03:40:48.929Z,1012.33
2019-04-29T03:41:48.914Z,1012.23
2019-04-29T03:42:48.903Z,1012.16
2019-04-29T03:43:48.888Z,1012.15
2019-04-29T03:44:48.870Z,1012.19
2019-04-29T03:45:48.857Z,1012.19
2019-04-29T03:46:48.856Z,1012.19
2019-04-29T03:47:48.836Z,1012.19
2019-04-29T03:48:48.841Z,1012.14
2019-04-29T03:49:48.814Z,1012.24
2019-04-29T03:50:48.804Z,1012.17
2019-04-29T03:51:48.792Z,1012.18
2019-04-29T03:52:48.786Z,1012.25
2019-04-29T03:53:48.778Z,1012.25
2019-04-29T03:54:48.755Z,1012.22
2019-04-29T03:55:48.750Z,1012.23
2019-04-29T03:56:48.731Z,1012.22
2019-04-29T03:57:48.740Z,1012.14
2019-04-29T03:58:48.713Z,1012.12
2019-04-29T03:59:48.727Z,1012.16
2019-04-29T04:00:48.723Z,1012.14
2019-04-29T04:01:48.678Z,1012.15
2019-04-29T04:02:48.684Z,1012.10
2019-04-29T04:03:48.658Z,1012.08
2019-04-29T04:04:48.666Z,1012.02
2019-04-29T04:05:48.634Z,1011.97
2019-04-29T04:06:48.629Z,1012.02
2019-04-29T04:07:48.609Z,1012.07
2019-04-29T04:09:04.762Z,1012.00
2019-04-29T04:09:49.735Z,1012.06
2019-04-29T04:10:48.582Z,1012.00
2019-04-29T04:11:48.586Z,1012.00
2019-04-29T04:12:48.561Z,1012.02
2019-04-29T04:13:48.541Z,1011.92
2019-04-29T04:14:48.549Z,1012.00
2019-04-29T04:15:48.540Z,1011.94
2019-04-29T04:16:48.531Z,1011.97
2019-04-29T04:17:48.509Z,1011.97
2019-04-29T04:18:48.488Z,1012.03
2019-04-29T04:19:48.489Z,1011.93
2019-04-29T04:20:48.470Z,1011.99
2019-04-29T04:21:48.457Z,1012.00
2019-04-29T04:22:48.617Z,1012.05
2019-04-29T04:23:48.443Z,1012.08
2019-04-29T04:24:48.423Z,1011.98
2019-04-29T04:25:48.423Z,1011.96
2019-04-29T04:26:48.463Z,1011.99
2019-04-29T04:27:48.405Z,1012.02
2019-04-29T04:28:48.386Z,1011.96
2019-04-29T04:29:48.389Z,1011.99
2019-04-29T04:30:48.351Z,1012.02
2019-04-29T04:31:48.347Z,1011.99
2019-04-29T04:32:48.379Z,1011.95
2019-04-29T04:33:48.329Z,1011.99
2019-04-29T04:34:48.305Z,1011.97
2019-04-29T04:35:48.299Z,1011.94
2019-04-29T04:36:48.292Z,1011.94
2019-04-29T04:37:48.273Z,1011.95
2019-04-29T04:38:48.326Z,1011.91
2019-04-29T04:39:48.271Z,1011.94
2019-04-29T04:40:48.258Z,1011.88
2019-04-29T04:41:48.226Z,1011.95
2019-04-29T04:42:48.230Z,1011.95
2019-04-29T04:43:48.236Z,1011.93
2019-04-29T04:44:48.205Z,1011.86
2019-04-29T04:45:48.203Z,1011.92
2019-04-29T04:46:48.175Z,1011.94
2019-04-29T04:47:48.166Z,1011.95
2019-04-29T04:48:48.154Z,1011.94
2019-04-29T04:49:48.148Z,1011.92
2019-04-29T04:50:48.142Z,1011.92
2019-04-29T04:51:48.125Z,1011.92
2019-04-29T04:52:48.100Z,1011.87
2019-04-29T04:53:48.101Z,1011.77
2019-04-29T04:54:48.078Z,1011.80
2019-04-29T04:55:48.083Z,1011.87
2019-04-29T04:56:48.066Z,1011.87
2019-04-29T04:57:48.056Z,1011.79
2019-04-29T04:58:48.036Z,1011.79
2019-04-29T04:59:48.029Z,1011.71
2019-04-29T05:00:48.018Z,1011.84
2019-04-29T05:01:48.021Z,1011.84
2019-04-29T05:02:48.001Z,1011.76
2019-04-29T05:03:47.984Z,1011.87
2019-04-29T05:04:47.969Z,1011.75
2019-04-29T05:05:47.976Z,1011.81
2019-04-29T05:06:47.966Z,1011.78
2019-04-29T05:07:47.958Z,1011.78
2019-04-29T05:08:48.017Z,1011.85
2019-04-29T05:09:47.947Z,1011.76
2019-04-29T05:10:47.950Z,1011.72
2019-04-29T05:11:47.895Z,1011.78
2019-04-29T05:12:47.895Z,1011.78
2019-04-29T05:13:47.872Z,1011.76
2019-04-29T05:14:47.854Z,1011.77
2019-04-29T05:15:47.846Z,1011.74
2019-04-29T05:16:47.843Z,1011.76
2019-04-29T05:17:47.827Z,1011.74
2019-04-29T05:18:47.834Z,1011.70
2019-04-29T05:19:47.810Z,1011.80
2019-04-29T05:20:47.798Z,1011.84
2019-04-29T05:21:47.792Z,1011.84
2019-04-29T05:22:47.768Z,1011.83
2019-04-29T05:23:47.772Z,1011.75
2019-04-29T05:24:47.765Z,1011.79
2019-04-29T05:25:47.726Z,1011.84
2019-04-29T05:26:47.725Z,1011.81
2019-04-29T05:27:47.714Z,1011.82
2019-04-29T05:28:47.709Z,1011.82
2019-04-29T05:29:47.698Z,1011.82
2019-04-29T05:30:47.683Z,1011.86
2019-04-29T05:31:47.663Z,1011.79
2019-04-29T05:32:47.666Z,1011.82
2019-04-29T05:33:47.636Z,1011.81
2019-04-29T05:34:48.272Z,1011.85
2019-04-29T05:35:47.622Z,1011.79
2019-04-29T05:36:47.625Z,1011.77
2019-04-29T05:37:47.597Z,1011.80
2019-04-29T05:38:47.595Z,1011.77
2019-04-29T05:39:47.576Z,1011.78
2019-04-29T05:40:47.580Z,1011.70
2019-04-29T05:41:47.555Z,1011.79
2019-04-29T05:42:48.283Z,1011.76
2019-04-29T05:43:47.535Z,1011.72
2019-04-29T05:44:47.530Z,1011.86
2019-04-29T05:45:47.886Z,1011.78
2019-04-29T05:46:47.508Z,1011.72
2019-04-29T05:47:47.486Z,1011.79
2019-04-29T05:48:47.476Z,1011.79
2019-04-29T05:49:47.508Z,1011.84
2019-04-29T05:50:51.793Z,1011.82
2019-04-29T05:51:47.447Z,1011.79
2019-04-29T05:52:49.787Z,1011.84
2019-04-29T05:53:54.505Z,1011.86
2019-04-29T05:54:48.403Z,1011.85
2019-04-29T05:55:47.408Z,1011.91
2019-04-29T05:56:47.386Z,1011.85
2019-04-29T05:57:47.385Z,1011.88
2019-04-29T05:58:47.362Z,1011.95
2019-04-29T05:59:47.748Z,1011.96
2019-04-29T06:00:47.346Z,1011.93
2019-04-29T06:01:48.910Z,1012.03
2019-04-29T06:02:47.324Z,1011.97
2019-04-29T06:03:47.306Z,1011.93
2019-04-29T06:04:48.084Z,1012.00
2019-04-29T06:05:47.284Z,1011.98
2019-04-29T06:06:47.272Z,1011.87
2019-04-29T06:07:47.264Z,1011.94
2019-04-29T06:08:47.262Z,1011.91
2019-04-29T06:09:47.246Z,1011.94
2019-04-29T06:10:47.230Z,1011.94
2019-04-29T06:11:47.221Z,1011.98
2019-04-29T06:12:47.199Z,1011.96
2019-04-29T06:13:47.194Z,1012.02
2019-04-29T06:14:47.186Z,1011.98
2019-04-29T06:15:47.170Z,1011.96
2019-04-29T06:16:47.220Z,1011.93
2019-04-29T06:17:47.162Z,1011.95
2019-04-29T06:18:47.210Z,1012.00
2019-04-29T06:19:47.134Z,1011.99
2019-04-29T06:20:47.112Z,1011.91
2019-04-29T06:21:54.296Z,1011.89
2019-04-29T06:23:28.760Z,1011.85
2019-04-29T06:24:28.754Z,1011.85
2019-04-29T06:25:28.728Z,1011.79
2019-04-29T06:26:28.719Z,1011.86
2019-04-29T06:27:28.704Z,1011.84
2019-04-29T06:28:28.692Z,1011.82
2019-04-29T06:29:28.683Z,1011.76
2019-04-29T06:30:28.679Z,1011.66
2019-04-29T06:31:28.660Z,1011.55
2019-04-29T06:32:28.648Z,1011.58
2019-04-29T06:33:30.792Z,1011.53
2019-04-29T06:34:28.643Z,1011.56
2019-04-29T06:35:28.608Z,1011.51
2019-04-29T06:36:28.602Z,1011.54
2019-04-29T06:37:28.588Z,1011.50
2019-04-29T06:38:28.577Z,1011.54
2019-04-29T06:39:28.582Z,1011.50
2019-04-29T06:40:30.627Z,1011.67
2019-04-29T06:41:29.541Z,1011.54
2019-04-29T06:42:28.533Z,1011.43
2019-04-29T06:43:30.359Z,1011.47
2019-04-29T06:44:28.519Z,1011.45
2019-04-29T06:45:28.507Z,1011.45
2019-04-29T06:46:28.490Z,1011.45
2019-04-29T06:47:28.478Z,1011.42
2019-04-29T06:48:28.468Z,1011.34
2019-04-29T06:49:28.458Z,1011.36
2019-04-29T06:50:28.443Z,1011.40
2019-04-29T06:51:28.438Z,1011.43
2019-04-29T06:52:28.419Z,1011.44
2019-04-29T06:53:28.423Z,1011.53
2019-04-29T06:54:28.401Z,1011.52
2019-04-29T06:55:28.392Z,1011.63
2019-04-29T06:56:28.377Z,1011.63
2019-04-29T06:57:28.378Z,1011.70
2019-04-29T06:58:28.351Z,1011.65
2019-04-29T06:59:28.352Z,1011.73
2019-04-29T07:00:28.329Z,1011.72
2019-04-29T07:01:28.322Z,1011.72
2019-04-29T07:02:28.323Z,1011.72
2019-04-29T07:03:28.317Z,1011.78
2019-04-29T07:04:30.618Z,1011.71
2019-04-29T07:05:29.282Z,1011.67
2019-04-29T07:06:28.260Z,1011.60
2019-04-29T07:07:28.263Z,1011.59
2019-04-29T07:08:28.247Z,1011.50
2019-04-29T07:09:28.243Z,1011.58
2019-04-29T07:10:28.222Z,1011.56
2019-04-29T07:11:31.873Z,1011.53
2019-04-29T07:12:29.209Z,1011.58
2019-04-29T07:13:28.230Z,1011.51
2019-04-29T07:14:32.456Z,1011.62
2019-04-29T07:15:28.161Z,1011.63
2019-04-29T07:16:31.883Z,1011.60
2019-04-29T07:17:28.162Z,1011.64
2019-04-29T07:18:28.136Z,1011.66
2019-04-29T07:19:28.360Z,1011.66
2019-04-29T07:20:28.118Z,1011.63
2019-04-29T07:21:28.095Z,1011.62
2019-04-29T07:22:31.039Z,1011.63
2019-04-29T07:23:28.073Z,1011.62
2019-04-29T07:24:28.063Z,1011.58
2019-04-29T07:25:28.750Z,1011.60
2019-04-29T07:26:28.044Z,1011.62
2019-04-29T07:27:28.032Z,1011.58
2019-04-29T07:28:28.022Z,1011.54
2019-04-29T07:29:30.787Z,1011.58
2019-04-29T07:30:29.361Z,1011.57
2019-04-29T07:31:32.737Z,1011.51
2019-04-29T07:32:32.067Z,1011.59
2019-04-29T07:33:27.961Z,1011.56
2019-04-29T07:34:28.996Z,1011.53
2019-04-29T07:35:28.942Z,1011.56
2019-04-29T07:36:27.940Z,1011.54
2019-04-29T07:37:29.749Z,1011.58
2019-04-29T07:38:40.767Z,1011.52
2019-04-29T07:39:31.776Z,1011.57
2019-04-29T07:40:27.896Z,1011.55
2019-04-29T07:41:27.893Z,1011.61
2019-04-29T07:42:32.319Z,1011.53
2019-04-29T07:43:28.859Z,1011.50
2019-04-29T07:44:42.692Z,1011.55
2019-04-29T07:45:29.229Z,1011.56
2019-04-29T07:46:27.872Z,1011.54
2019-04-29T07:47:29.490Z,1011.49
2019-04-29T07:48:36.844Z,1011.54
2019-04-29T07:50:10.576Z,1011.54
2019-04-29T07:51:17.589Z,1011.51
2019-04-29T07:52:59.275Z,1011.54
2019-04-29T07:53:59.236Z,1011.54
2019-04-29T07:55:33.755Z,1011.54
2019-04-29T07:56:42.341Z,1011.48
2019-04-29T07:58:16.414Z,1011.46
2019-04-29T07:59:16.374Z,1011.45
2019-04-29T08:00:16.361Z,1011.38
2019-04-29T08:01:19.725Z,1011.44
2019-04-29T08:02:17.350Z,1011.42
2019-04-29T08:03:16.335Z,1011.44
2019-04-29T08:04:16.325Z,1011.47
2019-04-29T08:05:16.314Z,1011.46
2019-04-29T08:06:16.315Z,1011.44
2019-04-29T08:07:16.295Z,1011.49
2019-04-29T08:08:23.453Z,1011.43
2019-04-29T08:09:58.049Z,1011.43
2019-04-29T08:10:57.921Z,1011.45
2019-04-29T08:12:39.581Z,1011.43
2019-04-29T08:13:39.579Z,1011.47
2019-04-29T08:15:21.231Z,1011.46
2019-04-29T08:16:21.208Z,1011.49
2019-04-29T08:18:06.591Z,1011.50
2019-04-29T08:19:05.005Z,1011.57
2019-04-29T08:20:05.372Z,1011.47
2019-04-29T08:21:02.838Z,1011.49
2019-04-29T08:22:02.831Z,1011.52
2019-04-29T08:23:04.118Z,1011.56
2019-04-29T08:24:02.816Z,1011.53
2019-04-29T08:25:02.794Z,1011.56
2019-04-29T08:26:04.478Z,1011.60
2019-04-29T08:27:02.793Z,1011.59
2019-04-29T08:28:02.771Z,1011.60
2019-04-29T08:29:02.762Z,1011.57
2019-04-29T08:30:06.742Z,1011.51
2019-04-29T08:31:03.730Z,1011.47
2019-04-29T08:32:02.770Z,1011.50
2019-04-29T08:33:02.714Z,1011.53
2019-04-29T08:34:02.694Z,1011.52
2019-04-29T08:35:03.368Z,1011.59
2019-04-29T08:36:02.677Z,1011.57
2019-04-29T08:37:02.671Z,1011.48
2019-04-29T08:38:02.655Z,1011.57
2019-04-29T08:39:08.774Z,1011.58
2019-04-29T08:40:15.550Z,1011.55
2019-04-29T08:41:03.695Z,1011.56
2019-04-29T08:42:03.862Z,1011.59
2019-04-29T08:43:02.625Z,1011.54
2019-04-29T08:44:15.898Z,1011.52
2019-04-29T08:45:03.648Z,1011.51
2019-04-29T08:46:02.711Z,1011.47
2019-04-29T08:47:02.571Z,1011.50
2019-04-29T08:48:02.563Z,1011.48
2019-04-29T08:49:06.120Z,1011.54
2019-04-29T08:50:03.531Z,1011.54
2019-04-29T08:51:02.539Z,1011.56
2019-04-29T08:52:02.506Z,1011.56
2019-04-29T08:53:02.498Z,1011.50
2019-04-29T08:54:02.523Z,1011.45
2019-04-29T08:55:02.474Z,1011.44
2019-04-29T08:56:05.538Z,1011.44
2019-04-29T08:57:04.407Z,1011.39
2019-04-29T08:58:02.459Z,1011.38
2019-04-29T08:59:02.441Z,1011.30
2019-04-29T09:00:02.431Z,1011.40
2019-04-29T09:01:02.413Z,1011.37
2019-04-29T09:02:05.308Z,1011.38
2019-04-29T09:03:03.442Z,1011.32
2019-04-29T09:04:02.370Z,1011.44
2019-04-29T09:05:02.365Z,1011.47
2019-04-29T09:06:05.489Z,1011.46
2019-04-29T09:07:12.450Z,1011.49
2019-04-29T09:08:03.332Z,1011.43
2019-04-29T09:09:04.967Z,1011.47
2019-04-29T09:10:03.695Z,1011.48
2019-04-29T09:11:02.302Z,1011.42
2019-04-29T09:12:02.285Z,1011.53
2019-04-29T09:13:02.279Z,1011.40
2019-04-29T09:14:02.255Z,1011.37
2019-04-29T09:15:02.258Z,1011.39
2019-04-29T09:16:02.245Z,1011.35
2019-04-29T09:17:04.810Z,1011.37
2019-04-29T09:18:03.233Z,1011.35
2019-04-29T09:19:02.222Z,1011.44
2019-04-29T09:20:02.199Z,1011.39
2019-04-29T09:21:02.189Z,1011.28
2019-04-29T09:22:02.189Z,1011.32
2019-04-29T09:23:02.172Z,1011.33
2019-04-29T09:24:02.160Z,1011.35
2019-04-29T09:25:02.153Z,1011.33
2019-04-29T09:26:03.218Z,1011.38
2019-04-29T09:27:05.047Z,1011.32
2019-04-29T09:28:03.129Z,1011.24
2019-04-29T09:29:03.957Z,1011.31
2019-04-29T09:30:02.158Z,1011.34
2019-04-29T09:31:02.096Z,1011.35
2019-04-29T09:32:02.072Z,1011.28
2019-04-29T09:33:02.072Z,1011.39
2019-04-29T09:34:06.761Z,1011.23
2019-04-29T09:35:03.041Z,1011.32
2019-04-29T09:36:02.032Z,1011.29
2019-04-29T09:37:02.010Z,1011.28
2019-04-29T09:38:02.008Z,1011.25
2019-04-29T09:39:01.994Z,1011.26
2019-04-29T09:40:01.996Z,1011.27
2019-04-29T09:41:01.974Z,1011.29
2019-04-29T09:42:03.486Z,1011.23
2019-04-29T09:43:14.560Z,1011.21
2019-04-29T09:44:04.044Z,1011.20
2019-04-29T09:45:01.932Z,1011.24
2019-04-29T09:46:01.975Z,1011.22
2019-04-29T09:47:04.190Z,1011.22
2019-04-29T09:48:02.899Z,1011.30
2019-04-29T09:49:01.888Z,1011.25
2019-04-29T09:50:01.873Z,1011.29
2019-04-29T09:51:01.892Z,1011.27
2019-04-29T09:52:01.850Z,1011.24
2019-04-29T09:53:01.866Z,1011.29
2019-04-29T09:54:01.837Z,1011.25
2019-04-29T09:55:03.961Z,1011.23
2019-04-29T09:56:01.810Z,1011.27
2019-04-29T09:57:01.808Z,1011.20
2019-04-29T09:58:01.840Z,1011.26
2019-04-29T09:59:01.783Z,1011.21
2019-04-29T10:00:05.358Z,1011.25
2019-04-29T10:01:02.755Z,1011.20
2019-04-29T10:02:01.765Z,1011.24
2019-04-29T10:03:02.947Z,1011.22
2019-04-29T10:04:01.724Z,1011.15
2019-04-29T10:05:01.730Z,1011.32
2019-04-29T10:06:01.731Z,1011.26
2019-04-29T10:07:01.685Z,1011.25
2019-04-29T10:08:01.684Z,1011.28
2019-04-29T10:09:01.662Z,1011.28
2019-04-29T10:10:02.402Z,1011.25
2019-04-29T10:11:02.651Z,1011.20
2019-04-29T10:12:01.641Z,1011.23
2019-04-29T10:13:01.632Z,1011.24
2019-04-29T10:14:01.635Z,1011.26
2019-04-29T10:15:01.605Z,1011.28
2019-04-29T10:16:02.142Z,1011.22
2019-04-29T10:17:01.577Z,1011.25
2019-04-29T10:18:01.589Z,1011.27
2019-04-29T10:19:05.319Z,1011.30
2019-04-29T10:20:01.551Z,1011.23
2019-04-29T10:21:01.533Z,1011.29
2019-04-29T10:22:01.528Z,1011.25
2019-04-29T10:23:01.526Z,1011.33
2019-04-29T10:24:01.514Z,1011.28
2019-04-29T10:25:01.502Z,1011.24
2019-04-29T10:26:01.640Z,1011.27
2019-04-29T10:27:01.472Z,1011.30
2019-04-29T10:28:01.469Z,1011.34
2019-04-29T10:29:01.460Z,1011.29
2019-04-29T10:30:01.446Z,1011.33
2019-04-29T10:31:01.429Z,1011.29
2019-04-29T10:32:02.481Z,1011.31
2019-04-29T10:33:02.419Z,1011.28
2019-04-29T10:34:01.407Z,1011.21
2019-04-29T10:35:03.636Z,1011.32
2019-04-29T10:36:02.382Z,1011.32
2019-04-29T10:37:01.384Z,1011.24
2019-04-29T10:38:02.816Z,1011.31
2019-04-29T10:39:01.350Z,1011.30
2019-04-29T10:40:10.984Z,1011.29
2019-04-29T10:41:02.419Z,1011.31
2019-04-29T10:42:01.319Z,1011.32
2019-04-29T10:43:01.292Z,1011.33
2019-04-29T10:44:01.293Z,1011.34
2019-04-29T10:45:01.356Z,1011.30
2019-04-29T10:46:01.264Z,1011.33
2019-04-29T10:47:01.258Z,1011.33
2019-04-29T10:48:01.244Z,1011.33
2019-04-29T10:49:03.561Z,1011.28
2019-04-29T10:50:01.250Z,1011.33
2019-04-29T10:51:01.232Z,1011.22
2019-04-29T10:52:02.824Z,1011.29
2019-04-29T10:53:01.199Z,1011.25
2019-04-29T10:54:01.191Z,1011.25
2019-04-29T10:55:01.203Z,1011.25
2019-04-29T10:56:05.540Z,1011.26
2019-04-29T10:57:02.142Z,1011.27
2019-04-29T10:58:01.138Z,1011.23
2019-04-29T10:59:04.501Z,1011.27
2019-04-29T11:00:02.243Z,1011.27
2019-04-29T11:01:01.206Z,1011.23
2019-04-29T11:02:05.101Z,1011.28
2019-04-29T11:03:02.089Z,1011.19
2019-04-29T11:04:02.771Z,1011.30
2019-04-29T11:05:02.675Z,1011.25
2019-04-29T11:06:02.119Z,1011.31
2019-04-29T11:07:13.541Z,1011.29
2019-04-29T11:08:02.488Z,1011.34
2019-04-29T11:09:01.013Z,1011.32
2019-04-29T11:10:01.004Z,1011.33
2019-04-29T11:11:02.656Z,1011.30
2019-04-29T11:12:00.994Z,1011.38
2019-04-29T11:13:00.978Z,1011.31
2019-04-29T11:14:01.656Z,1011.30
2019-04-29T11:15:01.765Z,1011.36
2019-04-29T11:16:00.934Z,1011.34
2019-04-29T11:17:00.930Z,1011.32
2019-04-29T11:18:03.554Z,1011.36
2019-04-29T11:19:05.089Z,1011.32
2019-04-29T11:20:00.916Z,1011.32
2019-04-29T11:21:00.878Z,1011.29
2019-04-29T11:22:02.183Z,1011.26
2019-04-29T11:23:00.857Z,1011.36
2019-04-29T11:24:00.861Z,1011.29
2019-04-29T11:25:00.858Z,1011.28
2019-04-29T11:26:00.830Z,1011.32
2019-04-29T11:27:11.618Z,1011.33
2019-04-29T11:28:01.824Z,1011.26
2019-04-29T11:29:00.799Z,1011.31
2019-04-29T11:30:02.999Z,1011.24
2019-04-29T11:31:00.769Z,1011.31
2019-04-29T11:32:00.766Z,1011.24
2019-04-29T11:33:04.707Z,1011.35
2019-04-29T11:34:01.740Z,1011.30
2019-04-29T11:35:00.728Z,1011.30
2019-04-29T11:36:03.936Z,1011.34
2019-04-29T11:37:01.713Z,1011.32
2019-04-29T11:38:00.694Z,1011.28
2019-04-29T11:39:00.686Z,1011.28
2019-04-29T11:40:00.675Z,1011.29
2019-04-29T11:41:00.666Z,1011.32
2019-04-29T11:42:01.595Z,1011.32
2019-04-29T11:43:00.637Z,1011.32
2019-04-29T11:44:00.635Z,1011.35
2019-04-29T11:45:02.150Z,1011.35
2019-04-29T11:46:00.602Z,1011.35
2019-04-29T11:47:00.595Z,1011.29
2019-04-29T11:48:00.589Z,1011.30
2019-04-29T11:49:00.574Z,1011.29
2019-04-29T11:50:00.562Z,1011.23
2019-04-29T11:51:00.641Z,1011.25
2019-04-29T11:52:10.045Z,1011.27
2019-04-29T11:53:01.526Z,1011.32
2019-04-29T11:54:00.515Z,1011.31
2019-04-29T11:55:00.507Z,1011.24
2019-04-29T11:56:00.505Z,1011.29
2019-04-29T11:57:00.517Z,1011.25
2019-04-29T11:58:00.521Z,1011.29
2019-04-29T11:59:00.545Z,1011.18
2019-04-29T12:00:00.450Z,1011.25
2019-04-29T12:01:03.932Z,1011.19
2019-04-29T12:02:01.476Z,1011.15
2019-04-29T12:03:00.415Z,1011.18
2019-04-29T12:04:00.407Z,1011.16
2019-04-29T12:05:04.088Z,1011.14
2019-04-29T12:06:01.423Z,1011.15
2019-04-29T12:07:00.385Z,1011.06
2019-04-29T12:08:03.853Z,1011.12
2019-04-29T12:09:01.366Z,1011.09
2019-04-29T12:10:02.273Z,1011.11
2019-04-29T12:11:07.131Z,1011.08
2019-04-29T12:12:01.318Z,1011.05